Time;durP1;ratioP1;P1;durP2;ratioP2;P2;SDS_P1;SDS_P2;PMS_P1;PMS_P2;Temp;Humidity;BMP_temperature;BMP_pressure;BME280_temperature;BME280_humidity;BME280_pressure;Samples;Min_cycle;Max_cycle;Signal;HPM_P1;HPM_P2
2023/05/02 00:01:08;;;;;;;4.22;3.60;;;;;;;12.98;84.44;98605.78;5071565;28;20217;-62
2023/05/02 00:03:34;;;;;;;3.13;2.92;;;;;;;12.95;84.80;98611.22;5071643;28;20192;-62
2023/05/02 00:05:59;;;;;;;4.10;3.60;;;;;;;13.11;85.19;98644.66;5071615;28;20186;-62
2023/05/02 00:08:25;;;;;;;3.75;3.45;;;;;;;12.93;84.66;98615.66;5071684;28;20288;-62
2023/05/02 00:10:50;;;;;;;5.03;3.47;;;;;;;13.26;84.06;98672.09;5071601;28;20277;-62
2023/05/02 00:13:15;;;;;;;3.75;3.10;;;;;;;12.80;83.98;98599.34;5071104;28;20189;-62
2023/05/02 00:15:41;;;;;;;3.60;3.40;;;;;;;13.24;84.62;98664.41;5071548;28;20264;-62
2023/05/02 00:18:07;;;;;;;3.30;3.10;;;;;;;12.92;84.35;98613.16;5056914;28;20665;-62
2023/05/02 00:20:32;;;;;;;3.83;3.13;;;;;;;12.92;84.25;98610.56;5051126;28;20220;-62
2023/05/02 00:22:57;;;;;;;3.95;3.65;;;;;;;13.11;85.32;98665.44;5051329;28;20178;-62
2023/05/02 00:25:23;;;;;;;3.88;3.50;;;;;;;13.16;85.17;98665.91;5051942;28;20216;-62
2023/05/02 00:27:49;;;;;;;4.10;3.72;;;;;;;12.54;85.45;98576.25;5053700;28;20212;-62
2023/05/02 00:30:15;;;;;;;4.35;3.30;;;;;;;13.18;84.33;98690.03;5053753;28;20546;-62
2023/05/02 00:32:41;;;;;;;3.83;3.53;;;;;;;13.15;84.79;98687.66;5053001;28;20261;-62
2023/05/02 00:35:07;;;;;;;3.65;3.40;;;;;;;12.67;84.55;98595.97;5053475;28;20673;-62
2023/05/02 00:37:32;;;;;;;3.80;3.60;;;;;;;13.17;84.32;98683.16;5053652;28;20181;-62
2023/05/02 00:39:58;;;;;;;3.78;3.30;;;;;;;13.10;84.12;98685.41;5053504;28;20174;-62
2023/05/02 00:42:23;;;;;;;3.20;3.00;;;;;;;12.51;84.25;98599.81;5053182;28;20225;-62
2023/05/02 00:44:48;;;;;;;3.67;3.47;;;;;;;12.95;84.96;98677.91;5053428;28;20170;-62
2023/05/02 00:47:14;;;;;;;3.47;3.28;;;;;;;12.56;85.00;98611.53;5052944;28;20182;-62
2023/05/02 00:49:41;;;;;;;3.75;3.50;;;;;;;12.80;85.17;98653.03;5050592;28;20215;-62
2023/05/02 00:52:07;;;;;;;3.50;3.30;;;;;;;13.02;85.00;98692.91;5050577;28;20268;-62
2023/05/02 00:54:32;;;;;;;4.13;2.97;;;;;;;12.99;84.66;98687.97;5050882;28;20185;-62
2023/05/02 00:56:58;;;;;;;3.35;3.15;;;;;;;12.29;85.44;98594.53;5050408;28;20700;-62
2023/05/02 00:59:25;;;;;;;4.07;3.20;;;;;;;12.22;86.38;98604.56;5049995;28;20202;-62
2023/05/02 01:01:56;;;;;;;4.05;3.85;;;;;;;12.77;86.40;98695.63;5050650;28;20587;-62
2023/05/02 01:04:58;;;;;;;3.58;3.38;;;;;;;12.61;87.60;98699.47;5050636;28;20699;-62
2023/05/02 01:07:41;;;;;;;3.85;3.55;;;;;;;12.22;86.95;98622.72;5050455;28;20192;-62
2023/05/02 01:10:25;;;;;;;3.92;3.55;;;;;;;12.48;88.73;98703.88;5030331;28;20728;-62
2023/05/02 01:13:12;;;;;;;3.50;3.30;;;;;;;12.49;88.28;98701.16;5030338;28;20190;-62
2023/05/02 01:15:40;;;;;;;4.03;3.70;;;;;;;12.17;87.79;98627.41;5030526;28;20192;-62
2023/05/02 01:18:11;;;;;;;3.60;3.40;;;;;;;12.60;87.82;98703.00;5030217;28;20183;-62
2023/05/02 01:20:40;;;;;;;4.15;3.47;;;;;;;12.35;87.91;98664.16;5039620;28;20221;-62
2023/05/02 01:23:16;;;;;;;4.15;3.83;;;;;;;12.04;88.49;98630.97;5049627;28;20185;-62
2023/05/02 01:26:02;;;;;;;3.92;3.63;;;;;;;12.31;89.08;98689.50;5050376;28;20648;-62
2023/05/02 01:28:52;;;;;;;4.15;3.85;;;;;;;12.40;88.75;98696.63;5050175;28;20265;-62
2023/05/02 01:31:18;;;;;;;4.07;3.88;;;;;;;11.85;88.95;98623.66;5050106;28;20197;-62
2023/05/02 01:33:46;;;;;;;4.20;3.90;;;;;;;12.31;89.07;98696.47;5050105;28;20260;-62
2023/05/02 01:36:15;;;;;;;3.72;3.42;;;;;;;12.26;89.38;98683.78;5050086;28;20190;-62
2023/05/02 01:38:42;;;;;;;3.38;3.17;;;;;;;11.91;89.81;98646.53;5050018;28;20650;-62
2023/05/02 01:41:09;;;;;;;4.30;3.60;;;;;;;11.69;89.60;98614.47;5050739;28;20213;-62
2023/05/02 01:43:37;;;;;;;3.63;3.42;;;;;;;12.21;89.94;98698.03;5052365;28;20180;-62
2023/05/02 01:46:06;;;;;;;3.78;3.50;;;;;;;11.73;90.52;98631.47;5052655;28;20208;-62
2023/05/02 01:48:32;;;;;;;3.80;3.50;;;;;;;12.20;90.05;98707.56;5029270;28;20326;-62
2023/05/02 01:50:58;;;;;;;4.47;3.70;;;;;;;12.15;89.97;98694.13;5029717;28;20186;-62
2023/05/02 01:53:27;;;;;;;3.75;3.45;;;;;;;11.67;89.39;98606.78;5029576;28;20293;-62
2023/05/02 01:55:54;;;;;;;3.85;3.53;;;;;;;12.09;90.10;98691.13;5029649;28;20189;-62
2023/05/02 01:58:21;;;;;;;3.78;3.47;;;;;;;12.01;89.16;98657.13;5028928;28;20201;-62
2023/05/02 02:00:47;;;;;;;4.68;3.72;;;;;;;11.65;89.27;98598.31;5029455;28;20292;-62
2023/05/02 02:03:14;;;;;;;4.32;3.92;;;;;;;11.65;89.35;98602.66;5029721;28;20243;-62
2023/05/02 02:05:41;;;;;;;3.60;3.40;;;;;;;11.94;89.42;98661.91;5029732;28;20179;-62
2023/05/02 02:08:07;;;;;;;4.85;4.00;;;;;;;11.73;89.75;98647.03;5029573;28;20195;-62
2023/05/02 02:10:39;;;;;;;4.30;3.90;;;;;;;11.83;90.72;98684.31;5029613;28;20178;-62
2023/05/02 02:13:38;;;;;;;4.03;3.55;;;;;;;11.64;90.95;98647.66;5029141;28;20210;-62
2023/05/02 02:16:05;;;;;;;3.55;3.35;;;;;;;12.01;90.67;98711.59;5029360;28;20244;-62
2023/05/02 02:18:35;;;;;;;4.00;3.70;;;;;;;11.45;91.14;98636.84;5031545;28;20213;-62
2023/05/02 02:21:05;;;;;;;4.18;3.78;;;;;;;11.32;91.66;98607.56;5051939;28;20205;-62
2023/05/02 02:23:33;;;;;;;3.78;3.58;;;;;;;11.85;91.66;98708.41;5051892;28;20783;-62
2023/05/02 02:26:01;;;;;;;3.60;3.30;;;;;;;11.28;91.96;98616.44;5051729;28;20173;-62
2023/05/02 02:28:26;;;;;;;3.50;3.30;;;;;;;11.46;91.88;98628.16;5051822;28;20204;-62
2023/05/02 02:30:52;;;;;;;3.75;3.50;;;;;;;11.54;91.55;98642.25;5051723;28;20723;-62
2023/05/02 02:33:18;;;;;;;3.65;3.45;;;;;;;11.63;91.16;98635.63;5051295;28;20177;-62
2023/05/02 02:35:52;;;;;;;3.88;3.67;;;;;;;11.70;90.74;98648.06;5051718;28;20178;-62
2023/05/02 02:38:39;;;;;;;3.83;3.53;;;;;;;11.54;91.42;98636.22;5051826;28;20170;-62
2023/05/02 02:41:05;;;;;;;4.10;3.80;;;;;;;11.94;91.17;98702.56;5051219;28;20688;-62
2023/05/02 02:43:47;;;;;;;3.90;3.60;;;;;;;12.00;90.65;98705.56;5051508;28;20178;-62
2023/05/02 02:46:45;;;;;;;4.65;3.60;;;;;;;11.72;90.25;98655.75;5051529;28;20546;-62
2023/05/02 02:49:25;;;;;;;4.63;3.72;;;;;;;11.96;90.57;98713.66;5051294;28;20623;-62
2023/05/02 02:52:09;;;;;;;3.53;3.33;;;;;;;11.87;91.16;98716.88;5051460;28;20174;-62
2023/05/02 02:54:44;;;;;;;3.83;3.53;;;;;;;11.91;90.27;98702.78;5051705;28;20178;-62
2023/05/02 02:57:20;;;;;;;4.57;3.63;;;;;;;11.76;90.33;98664.94;5051416;28;20188;-62
2023/05/02 02:59:51;;;;;;;3.72;3.42;;;;;;;11.88;89.96;98697.78;5051519;28;20177;-62
2023/05/02 03:02:18;;;;;;;4.05;3.80;;;;;;;11.85;90.30;98692.84;5051441;28;20189;-62
2023/05/02 03:04:45;;;;;;;3.78;3.58;;;;;;;11.62;89.54;98657.28;5051279;28;20174;-62
2023/05/02 03:07:11;;;;;;;4.18;3.88;;;;;;;11.81;90.37;98712.13;5051209;28;20185;-62
2023/05/02 03:09:44;;;;;;;3.50;3.30;;;;;;;11.91;90.38;98733.91;5052085;28;20174;-62
2023/05/02 03:12:10;;;;;;;4.43;4.13;;;;;;;11.38;90.77;98658.94;5055215;28;20178;-62
2023/05/02 03:14:36;;;;;;;3.95;3.65;;;;;;;11.32;90.25;98642.03;5055064;28;20556;-62
2023/05/02 03:17:02;;;;;;;3.97;3.72;;;;;;;11.23;92.07;98647.00;5055147;28;20260;-62
2023/05/02 03:19:28;;;;;;;3.85;3.60;;;;;;;11.59;91.48;98702.38;5055131;28;20686;-62
2023/05/02 03:21:53;;;;;;;4.13;3.78;;;;;;;11.42;91.84;98676.75;5055040;28;20206;-62
2023/05/02 03:24:18;;;;;;;4.22;3.83;;;;;;;11.15;92.07;98633.75;5055047;28;20663;-62
2023/05/02 03:26:44;;;;;;;4.38;4.07;;;;;;;11.40;92.45;98688.16;5052288;28;20336;-62
2023/05/02 03:29:09;;;;;;;4.70;4.30;;;;;;;11.67;92.31;98735.56;5052260;28;20186;-62
2023/05/02 03:31:35;;;;;;;5.78;3.65;;;;;;;11.35;92.59;98687.63;5052490;28;20244;-62
2023/05/02 03:34:00;;;;;;;4.18;3.88;;;;;;;11.56;92.14;98743.22;5032023;28;20281;-61
2023/05/02 03:36:26;;;;;;;3.58;3.38;;;;;;;11.58;91.95;98741.34;5032102;28;20296;-61
2023/05/02 03:38:51;;;;;;;3.83;3.53;;;;;;;11.27;92.26;98702.88;5032408;28;20280;-62
2023/05/02 03:41:17;;;;;;;3.90;3.60;;;;;;;11.35;91.88;98703.16;5032298;28;20222;-62
2023/05/02 03:43:42;;;;;;;3.90;3.60;;;;;;;11.16;91.35;98661.31;5032273;28;20234;-62
2023/05/02 03:46:10;;;;;;;4.20;3.90;;;;;;;11.50;91.82;98715.13;5032023;28;20734;-61
2023/05/02 03:48:36;;;;;;;3.97;3.60;;;;;;;11.22;91.23;98673.84;5032100;28;20197;-63
2023/05/02 03:51:02;;;;;;;5.00;3.75;;;;;;;11.83;90.72;98762.09;5031780;28;20179;-62
2023/05/02 03:53:29;;;;;;;4.03;3.63;;;;;;;11.79;90.35;98765.84;5031937;28;20188;-62
2023/05/02 03:55:54;;;;;;;3.53;3.33;;;;;;;11.89;90.28;98761.66;5032072;28;20186;-62
2023/05/02 03:58:20;;;;;;;4.07;3.78;;;;;;;11.41;89.96;98687.22;5046466;28;20280;-62
2023/05/02 04:00:46;;;;;;;4.15;3.72;;;;;;;11.32;90.30;98675.72;5051629;28;20219;-62
2023/05/02 04:03:11;;;;;;;3.88;3.47;;;;;;;11.97;90.11;98769.78;5051652;28;20181;-62
2023/05/02 04:05:37;;;;;;;3.78;3.53;;;;;;;11.73;89.81;98714.41;5053314;28;20190;-62
2023/05/02 04:08:02;;;;;;;3.88;3.53;;;;;;;11.63;89.37;98705.59;5053879;28;20205;-62
2023/05/02 04:10:28;;;;;;;3.88;3.58;;;;;;;12.12;89.72;98776.50;5054056;28;20217;-62
2023/05/02 04:12:53;;;;;;;6.28;3.60;;;;;;;12.16;89.44;98773.59;5053380;28;20181;-62
2023/05/02 04:15:18;;;;;;;3.90;3.60;;;;;;;12.15;88.77;98768.50;5054091;28;20181;-62
2023/05/02 04:17:45;;;;;;;3.72;3.45;;;;;;;12.26;89.26;98781.56;5054073;28;20565;-62
2023/05/02 04:20:11;;;;;;;4.60;4.30;;;;;;;11.99;91.67;98737.63;5053836;28;20273;-62
2023/05/02 04:22:38;;;;;;;4.28;3.92;;;;;;;11.88;88.38;98698.63;5050445;28;20185;-62
2023/05/02 04:25:05;;;;;;;4.88;4.00;;;;;;;11.90;87.88;98707.13;5050369;28;20264;-62
2023/05/02 04:27:30;;;;;;;3.67;3.47;;;;;;;12.51;86.61;98803.13;5051235;28;20546;-62
2023/05/02 04:29:56;;;;;;;3.70;3.40;;;;;;;12.40;85.41;98764.09;5051145;28;20209;-62
2023/05/02 04:32:21;;;;;;;3.60;3.40;;;;;;;12.21;85.02;98706.66;5051285;28;20201;-62
2023/05/02 04:34:47;;;;;;;3.78;3.55;;;;;;;12.35;84.64;98739.41;5051316;28;20638;-62
2023/05/02 04:37:12;;;;;;;4.47;4.10;;;;;;;12.36;84.82;98741.09;5051152;28;20213;-62
2023/05/02 04:39:38;;;;;;;3.65;3.35;;;;;;;12.63;83.16;98788.44;5050756;28;20557;-62
2023/05/02 04:42:03;;;;;;;4.10;3.30;;;;;;;12.77;83.04;98790.91;5050019;28;20300;-62
2023/05/02 04:44:28;;;;;;;6.20;3.58;;;;;;;12.42;83.25;98715.50;5050934;28;20193;-62
2023/05/02 04:46:54;;;;;;;4.50;3.47;;;;;;;12.58;82.76;98741.19;5050935;28;20178;-62
2023/05/02 04:49:19;;;;;;;3.72;3.45;;;;;;;12.76;81.45;98745.91;5050868;28;20182;-62
2023/05/02 04:51:45;;;;;;;5.50;4.82;;;;;;;12.96;86.41;98760.09;5050631;28;20255;-62
2023/05/02 04:54:11;;;;;;;4.95;4.55;;;;;;;13.00;84.13;98748.56;5052383;28;20216;-62
2023/05/02 04:56:37;;;;;;;5.05;3.70;;;;;;;13.35;81.06;98781.38;5053207;28;20177;-62
2023/05/02 04:59:02;;;;;;;5.28;3.50;;;;;;;12.99;78.35;98715.69;5053284;28;20236;-62
2023/05/02 05:01:28;;;;;;;4.50;4.10;;;;;;;13.58;79.01;98801.31;5053048;28;20296;-62
2023/05/02 05:03:53;;;;;;;3.67;3.40;;;;;;;13.14;79.67;98735.38;5052729;28;20176;-62
2023/05/02 05:06:19;;;;;;;3.92;3.63;;;;;;;13.53;79.23;98782.63;5050472;28;20182;-62
2023/05/02 05:08:45;;;;;;;3.83;3.53;;;;;;;13.79;78.32;98801.47;5010531;28;20187;-62
2023/05/02 05:11:11;;;;;;;4.00;3.63;;;;;;;14.00;76.63;98810.28;5011135;28;20195;-62
2023/05/02 05:13:36;;;;;;;4.03;3.60;;;;;;;13.92;75.55;98784.00;5010766;28;20701;-62
2023/05/02 05:16:02;;;;;;;3.70;3.40;;;;;;;14.17;74.06;98804.63;5010687;28;20234;-63
2023/05/02 05:18:28;;;;;;;3.72;3.47;;;;;;;14.12;74.79;98812.75;5010692;28;20581;-63
2023/05/02 05:20:53;;;;;;;3.55;3.28;;;;;;;13.98;75.15;98786.13;5010778;28;20215;-62
2023/05/02 05:23:19;;;;;;;3.70;3.00;;;;;;;13.98;74.49;98773.13;5010617;28;20237;-63
2023/05/02 05:25:44;;;;;;;6.60;4.07;;;;;;;14.18;74.96;98821.88;5010566;28;20195;-63
2023/05/02 05:28:10;;;;;;;3.60;3.30;;;;;;;14.09;74.51;98806.97;5010610;28;20179;-61
2023/05/02 05:30:35;;;;;;;3.55;3.28;;;;;;;13.86;75.57;98776.66;5010514;28;20183;-61
2023/05/02 05:33:00;;;;;;;3.85;3.35;;;;;;;14.01;74.87;98785.91;5010625;28;20190;-62
2023/05/02 05:35:26;;;;;;;3.55;3.25;;;;;;;14.23;73.87;98783.34;5010507;28;20184;-62
2023/05/02 05:37:52;;;;;;;3.33;3.03;;;;;;;14.35;73.30;98809.25;5024575;28;20570;-63
2023/05/02 05:40:17;;;;;;;4.25;3.42;;;;;;;14.35;72.83;98790.22;5029703;28;20240;-62
2023/05/02 05:42:43;;;;;;;3.60;3.30;;;;;;;14.57;72.81;98808.44;5030179;28;20179;-63
2023/05/02 05:45:09;;;;;;;4.45;3.17;;;;;;;14.49;72.35;98782.13;5031667;28;20179;-62
2023/05/02 05:47:34;;;;;;;5.05;3.72;;;;;;;14.70;72.86;98825.56;5052369;28;20223;-62
2023/05/02 05:50:00;;;;;;;4.25;3.47;;;;;;;14.44;71.49;98747.81;5052218;28;20186;-61
2023/05/02 05:52:25;;;;;;;3.83;3.53;;;;;;;14.99;71.60;98838.91;5052063;28;20170;-61
2023/05/02 05:54:55;;;;;;;3.55;3.30;;;;;;;14.95;71.74;98807.06;5052220;28;20169;-61
2023/05/02 05:57:21;;;;;;;3.30;3.10;;;;;;;14.80;70.43;98758.75;5051707;28;20185;-61
2023/05/02 05:59:47;;;;;;;4.72;3.35;;;;;;;14.76;69.98;98759.13;5051919;28;20186;-61
2023/05/02 06:02:14;;;;;;;4.57;3.20;;;;;;;15.42;68.35;98842.34;5051743;28;20232;-61
2023/05/02 06:04:40;;;;;;;5.00;3.50;;;;;;;15.21;68.87;98797.13;5051880;28;20189;-61
2023/05/02 06:07:05;;;;;;;11.18;6.00;;;;;;;15.28;73.21;98795.69;5051807;28;20177;-62
2023/05/02 06:09:31;;;;;;;12.70;7.18;;;;;;;15.11;77.74;98770.16;5051977;28;20247;-62
2023/05/02 06:11:56;;;;;;;14.05;7.32;;;;;;;15.48;78.61;98826.19;5051926;28;20264;-62
2023/05/02 06:14:22;;;;;;;16.73;7.90;;;;;;;15.56;79.87;98840.28;5051352;28;20288;-62
2023/05/02 06:16:47;;;;;;;13.30;7.63;;;;;;;15.55;78.74;98809.94;5051928;28;20182;-62
2023/05/02 06:19:13;;;;;;;14.90;8.05;;;;;;;15.45;77.81;98766.47;5069299;28;20197;-62
2023/05/02 06:21:39;;;;;;;12.88;7.25;;;;;;;15.59;77.08;98792.25;5069440;28;20645;-62
2023/05/02 06:24:04;;;;;;;15.77;7.80;;;;;;;15.71;76.99;98801.66;5069374;28;20222;-62
2023/05/02 06:26:30;;;;;;;13.65;7.47;;;;;;;15.91;76.48;98819.91;5068873;28;20272;-62
2023/05/02 06:28:55;;;;;;;14.38;7.30;;;;;;;15.41;76.53;98773.72;5069308;28;20254;-62
2023/05/02 06:31:21;;;;;;;9.93;6.32;;;;;;;15.92;76.05;98841.63;5069205;28;20663;-62
2023/05/02 06:33:46;;;;;;;7.15;5.90;;;;;;;16.04;75.52;98835.38;5069110;28;20231;-62
2023/05/02 06:36:11;;;;;;;8.82;6.55;;;;;;;15.98;74.99;98833.28;5069186;28;20211;-62
2023/05/02 06:38:37;;;;;;;9.57;6.70;;;;;;;16.29;74.48;98853.25;5069215;28;20195;-62
2023/05/02 06:41:02;;;;;;;9.73;5.80;;;;;;;16.08;72.85;98784.56;5068691;28;20281;-62
2023/05/02 06:43:28;;;;;;;9.63;5.55;;;;;;;16.65;71.78;98853.59;5068808;28;20185;-62
2023/05/02 06:45:57;;;;;;;9.05;5.60;;;;;;;16.86;71.10;98850.91;5051995;28;20189;-62
2023/05/02 06:48:23;;;;;;;17.38;6.07;;;;;;;16.95;70.85;98850.09;5053100;28;20197;-62
2023/05/02 06:50:51;;;;;;;10.43;5.20;;;;;;;17.14;70.08;98856.19;5037984;28;20660;-62
2023/05/02 06:53:16;;;;;;;12.05;5.30;;;;;;;16.72;68.73;98765.03;5032997;28;20692;-62
2023/05/02 06:55:43;;;;;;;6.40;5.18;;;;;;;16.92;68.87;98809.34;5032984;28;20189;-62
2023/05/02 06:58:08;;;;;;;5.88;5.28;;;;;;;16.67;70.01;98803.81;5047743;28;20887;-62
2023/05/02 07:00:33;;;;;;;6.18;5.10;;;;;;;16.50;67.90;98773.09;5052936;28;20262;-62
2023/05/02 07:02:59;;;;;;;11.32;5.50;;;;;;;16.77;67.55;98794.19;5053224;28;20185;-62
2023/05/02 07:05:24;;;;;;;12.30;5.60;;;;;;;16.93;66.41;98807.59;5052887;28;20216;-62
2023/05/02 07:07:50;;;;;;;6.22;4.43;;;;;;;16.82;64.82;98784.16;5052695;28;20217;-62
2023/05/02 07:10:15;;;;;;;5.57;4.78;;;;;;;17.23;64.67;98842.31;5052438;28;20612;-62
2023/05/02 07:12:41;;;;;;;5.40;4.80;;;;;;;17.16;64.33;98816.84;5037131;28;20194;-62
2023/05/02 07:15:07;;;;;;;6.10;5.20;;;;;;;17.41;62.45;98839.88;5032842;28;20180;-62
2023/05/02 07:17:32;;;;;;;7.85;4.55;;;;;;;17.32;61.48;98809.28;5033055;28;20190;-62
2023/05/02 07:19:58;;;;;;;5.45;4.40;;;;;;;17.46;60.97;98848.97;5032735;28;20177;-62
2023/05/02 07:22:23;;;;;;;4.93;4.53;;;;;;;16.93;59.93;98771.81;5034973;28;20272;-62
2023/05/02 07:24:57;;;;;;;5.13;4.65;;;;;;;17.09;60.13;98793.00;5054561;28;20252;-62
2023/05/02 07:27:23;;;;;;;6.97;4.32;;;;;;;17.08;60.52;98770.44;5055060;28;20663;-62
2023/05/02 07:29:48;;;;;;;6.30;4.25;;;;;;;17.70;60.13;98848.53;5054865;28;20230;-62
2023/05/02 07:32:13;;;;;;;4.70;4.30;;;;;;;17.36;59.16;98771.41;5055062;28;20539;-62
2023/05/02 07:34:39;;;;;;;3.85;3.42;;;;;;;17.96;58.27;98847.03;5054819;28;20170;-62
2023/05/02 07:37:04;;;;;;;6.38;4.10;;;;;;;17.76;57.55;98796.47;5031414;28;20336;-63
2023/05/02 07:39:32;;;;;;;6.20;3.42;;;;;;;17.96;57.44;98805.13;5032416;28;20182;-62
2023/05/02 07:41:57;;;;;;;4.78;3.30;;;;;;;18.33;56.76;98843.53;5032002;28;20576;-63
2023/05/02 07:44:23;;;;;;;4.18;3.40;;;;;;;18.34;55.86;98858.28;5032198;28;20193;-62
2023/05/02 07:46:48;;;;;;;4.03;3.67;;;;;;;18.42;55.20;98854.94;5032258;28;20207;-62
2023/05/02 07:49:14;;;;;;;6.22;3.72;;;;;;;18.18;56.14;98828.38;5032233;28;20279;-63
2023/05/02 07:51:39;;;;;;;3.83;2.72;;;;;;;17.84;57.16;98788.75;5032127;28;20332;-62
2023/05/02 07:54:19;;;;;;;4.20;2.88;;;;;;;18.07;57.24;98823.28;5031797;28;20684;-62
2023/05/02 07:56:45;;;;;;;5.80;2.75;;;;;;;18.00;55.84;98820.41;5030515;28;20192;-62
2023/05/02 07:59:10;;;;;;;3.53;2.83;;;;;;;17.35;55.09;98760.13;5030949;28;20244;-62
2023/05/02 08:01:37;;;;;;;3.83;2.50;;;;;;;17.88;57.58;98839.03;5031437;28;20221;-62
2023/05/02 08:04:03;;;;;;;3.03;2.70;;;;;;;17.52;57.37;98756.84;5032069;28;20178;-62
2023/05/02 08:06:29;;;;;;;2.58;2.33;;;;;;;17.96;57.30;98810.38;5031670;28;20814;-62
2023/05/02 08:08:55;;;;;;;3.45;2.70;;;;;;;18.32;56.18;98838.41;5031840;28;20280;-62
2023/05/02 08:11:21;;;;;;;6.95;2.75;;;;;;;18.04;56.11;98755.47;5031919;28;20246;-62
2023/05/02 08:13:46;;;;;;;3.47;2.10;;;;;;;18.31;55.81;98798.28;5055443;28;20327;-62
2023/05/02 08:16:12;;;;;;;2.78;2.55;;;;;;;18.25;55.52;98779.69;5071721;28;20185;-62
2023/05/02 08:18:38;;;;;;;2.40;2.20;;;;;;;18.58;56.11;98810.56;5071564;28;20723;-62
2023/05/02 08:21:03;;;;;;;3.08;2.50;;;;;;;18.71;56.10;98816.31;5071527;28;20856;-62
2023/05/02 08:23:29;;;;;;;4.50;2.22;;;;;;;18.23;56.52;98742.28;5071714;28;20184;-62
2023/05/02 08:25:54;;;;;;;3.25;2.10;;;;;;;18.33;54.61;98740.50;5071271;28;20214;-62
2023/05/02 08:28:20;;;;;;;2.08;1.65;;;;;;;18.17;53.36;98732.41;5071119;28;20272;-63
2023/05/02 08:30:45;;;;;;;1.80;1.70;;;;;;;18.40;52.07;98781.72;5071264;28;20177;-62
2023/05/02 08:33:10;;;;;;;3.40;1.80;;;;;;;18.70;51.64;98789.28;5071111;28;20311;-62
2023/05/02 08:35:36;;;;;;;9.15;2.40;;;;;;;18.99;48.83;98805.66;5071073;28;20219;-63
2023/05/02 08:38:01;;;;;;;1.73;1.63;;;;;;;18.88;47.36;98770.97;5071177;28;20173;-63
2023/05/02 08:40:27;;;;;;;4.25;1.70;;;;;;;18.93;47.05;98753.81;5071121;28;20686;-62
2023/05/02 08:42:53;;;;;;;2.25;1.50;;;;;;;19.38;44.12;98787.88;5071129;28;20176;-62
2023/05/02 08:45:21;;;;;;;2.25;1.60;;;;;;;19.49;42.67;98779.75;5057793;28;20280;-62
2023/05/02 08:47:48;;;;;;;2.17;1.58;;;;;;;19.35;40.24;98748.81;5053255;28;20187;-62
2023/05/02 08:50:16;;;;;;;2.58;1.67;;;;;;;19.51;41.91;98754.19;5053383;28;20640;-62
2023/05/02 08:52:44;;;;;;;2.15;1.30;;;;;;;19.39;38.95;98718.66;5053217;28;20179;-62
2023/05/02 08:55:11;;;;;;;2.17;1.20;;;;;;;19.86;38.48;98785.63;5053255;28;20703;-62
2023/05/02 08:57:38;;;;;;;1.58;1.48;;;;;;;19.63;37.81;98729.31;5053126;28;20209;-63
2023/05/02 09:00:04;;;;;;;2.70;1.30;;;;;;;20.17;36.86;98800.00;5053118;28;20177;-63
2023/05/02 09:02:44;;;;;;;2.40;1.30;;;;;;;20.01;37.35;98760.44;5030061;28;20596;-62
2023/05/02 09:05:11;;;;;;;2.05;1.63;;;;;;;19.81;37.04;98715.19;5030661;28;20316;-63
2023/05/02 09:07:47;;;;;;;1.50;1.23;;;;;;;19.85;32.15;98736.69;5030146;28;20190;-62
2023/05/02 09:10:14;;;;;;;2.00;1.20;;;;;;;20.18;32.23;98793.75;5030581;28;20224;-62
2023/05/02 09:12:39;;;;;;;1.23;1.10;;;;;;;20.10;32.74;98755.09;5030499;28;20173;-63
2023/05/02 09:15:15;;;;;;;3.35;1.58;;;;;;;20.01;31.79;98721.03;5030618;28;20692;-62
2023/05/02 09:17:45;;;;;;;1.40;1.30;;;;;;;20.49;31.95;98779.13;5030655;28;20180;-62
2023/05/02 09:20:13;;;;;;;1.33;1.23;;;;;;;20.53;30.69;98783.09;5030382;28;20186;-63
2023/05/02 09:22:38;;;;;;;2.05;1.20;;;;;;;20.52;31.28;98773.56;5030495;28;20680;-63
2023/05/02 09:25:07;;;;;;;1.33;1.23;;;;;;;20.19;31.81;98698.16;5030266;28;20184;-63
2023/05/02 09:27:54;;;;;;;4.63;1.10;;;;;;;20.31;31.46;98707.41;5030235;28;20231;-63
2023/05/02 09:30:24;;;;;;;2.97;1.10;;;;;;;20.66;31.56;98775.56;5030344;28;20272;-62
2023/05/02 09:32:50;;;;;;;1.15;0.95;;;;;;;20.41;31.38;98722.06;5030236;28;20728;-63
2023/05/02 09:35:22;;;;;;;3.22;1.15;;;;;;;20.38;32.12;98708.41;5030285;28;20653;-62
2023/05/02 09:37:57;;;;;;;1.88;1.38;;;;;;;20.86;30.61;98776.97;5030270;28;20181;-62
2023/05/02 09:40:24;;;;;;;3.70;1.25;;;;;;;20.92;31.03;98760.56;5044867;28;20193;-63
2023/05/02 09:42:50;;;;;;;1.98;1.23;;;;;;;20.59;30.80;98708.81;5052202;28;20185;-62
2023/05/02 09:45:22;;;;;;;2.40;1.20;;;;;;;20.86;30.50;98766.44;5052014;28;20180;-62
2023/05/02 09:47:48;;;;;;;1.27;1.10;;;;;;;20.34;30.88;98707.09;5052051;28;20263;-62
2023/05/02 09:50:32;;;;;;;1.63;1.00;;;;;;;20.77;31.02;98736.66;5051983;28;20177;-62
2023/05/02 09:53:06;;;;;;;3.42;1.10;;;;;;;20.94;31.16;98759.44;5051724;28;20180;-63
2023/05/02 09:55:31;;;;;;;2.70;1.20;;;;;;;20.72;30.48;98706.56;5052026;28;20525;-62
2023/05/02 09:57:58;;;;;;;4.82;1.13;;;;;;;20.82;32.45;98699.34;5029659;28;20232;-61
2023/05/02 10:00:43;;;;;;;1.23;1.13;;;;;;;20.82;33.72;98660.72;5029814;28;20273;-63
2023/05/02 10:03:09;;;;;;;2.58;1.10;;;;;;;21.22;33.52;98696.78;5029853;28;20356;-61
2023/05/02 10:05:38;;;;;;;2.28;1.40;;;;;;;21.55;32.57;98737.88;5029911;28;20704;-62
2023/05/02 10:08:08;;;;;;;3.20;1.40;;;;;;;21.05;32.94;98660.91;5029656;28;20218;-62
2023/05/02 10:10:36;;;;;;;3.85;1.35;;;;;;;21.31;32.52;98687.88;5029879;28;20660;-62
2023/05/02 10:13:04;;;;;;;1.55;1.45;;;;;;;21.58;32.43;98732.31;5029632;28;20186;-61
2023/05/02 10:15:30;;;;;;;1.35;1.25;;;;;;;21.36;32.46;98665.34;5029605;28;20273;-62
2023/05/02 10:17:59;;;;;;;5.32;1.10;;;;;;;21.42;31.72;98667.31;5029516;28;20190;-62
2023/05/02 10:20:31;;;;;;;1.30;1.17;;;;;;;21.37;30.91;98668.78;5028769;28;20228;-62
2023/05/02 10:22:58;;;;;;;1.10;1.10;;;;;;;21.61;31.16;98724.91;5029085;28;20901;-61
2023/05/02 10:25:24;;;;;;;1.10;1.10;;;;;;;21.62;31.76;98720.47;5029590;28;20712;-64
2023/05/02 10:27:50;;;;;;;1.15;1.15;;;;;;;21.59;31.33;98702.34;5030191;28;20268;-61
2023/05/02 10:30:16;;;;;;;2.25;0.93;;;;;;;21.43;31.05;98647.06;5050800;28;20621;-61
2023/05/02 10:32:46;;;;;;;3.63;1.50;;;;;;;21.45;31.79;98653.00;5051739;28;20181;-61
2023/05/02 10:35:12;;;;;;;2.45;1.25;;;;;;;21.81;31.38;98688.50;5051820;28;20169;-61
2023/05/02 10:37:39;;;;;;;1.48;1.17;;;;;;;21.94;31.13;98720.41;5051633;28;20204;-62
2023/05/02 10:40:10;;;;;;;3.67;1.08;;;;;;;22.01;31.23;98709.03;5051480;28;20173;-62
2023/05/02 10:42:39;;;;;;;1.15;0.98;;;;;;;22.03;30.28;98656.97;5051539;28;20220;-62
2023/05/02 10:45:09;;;;;;;1.65;1.40;;;;;;;22.40;29.81;98704.63;5051703;28;20272;-62
2023/05/02 10:47:35;;;;;;;1.85;1.52;;;;;;;22.13;30.28;98648.84;5051427;28;20181;-62
2023/05/02 10:50:03;;;;;;;5.00;1.20;;;;;;;22.19;30.48;98663.97;5050885;28;20177;-62
2023/05/02 10:52:33;;;;;;;1.73;1.10;;;;;;;22.59;30.00;98711.28;5051530;28;20181;-62
2023/05/02 10:55:22;;;;;;;2.83;1.38;;;;;;;22.86;30.04;98710.81;5051588;28;20169;-62
2023/05/02 10:57:57;;;;;;;1.60;1.27;;;;;;;23.17;29.30;98714.25;5051022;28;20663;-62
2023/05/02 11:00:24;;;;;;;1.35;1.23;;;;;;;23.16;28.66;98729.25;5051448;28;20176;-62
2023/05/02 11:02:50;;;;;;;10.32;1.00;;;;;;;22.58;29.39;98633.16;5051334;28;20227;-62
2023/05/02 11:05:16;;;;;;;4.20;1.40;;;;;;;22.48;29.36;98630.75;5051197;28;20618;-62
2023/05/02 11:07:41;;;;;;;2.08;1.13;;;;;;;23.09;29.85;98703.72;5051134;28;20173;-62
2023/05/02 11:10:16;;;;;;;2.50;0.93;;;;;;;23.33;29.48;98714.13;5051425;28;20256;-62
2023/05/02 11:12:46;;;;;;;3.22;1.33;;;;;;;23.28;29.58;98674.22;5051445;28;20651;-62
2023/05/02 11:15:12;;;;;;;1.90;1.10;;;;;;;23.16;29.64;98694.94;5051349;28;20173;-62
2023/05/02 11:18:12;;;;;;;1.90;0.90;;;;;;;23.10;28.74;98708.00;5050636;28;20238;-62
2023/05/02 11:20:42;;;;;;;1.83;1.13;;;;;;;22.84;29.26;98670.59;5050937;28;20233;-62
2023/05/02 11:23:20;;;;;;;1.23;0.90;;;;;;;22.94;29.31;98708.94;5051107;28;20174;-62
2023/05/02 11:25:55;;;;;;;2.65;1.20;;;;;;;22.74;29.79;98688.47;5050898;28;20176;-62
2023/05/02 11:28:36;;;;;;;1.00;1.00;;;;;;;23.00;28.98;98691.56;5051307;28;20177;-62
2023/05/02 11:31:06;;;;;;;2.00;1.20;;;;;;;23.00;29.32;98651.97;5052715;28;20188;-62
2023/05/02 11:33:31;;;;;;;0.95;0.93;;;;;;;23.01;29.50;98622.78;5054837;28;20231;-62
2023/05/02 11:35:57;;;;;;;1.60;1.10;;;;;;;23.26;28.54;98660.38;5054432;28;20169;-62
2023/05/02 11:38:24;;;;;;;1.02;0.93;;;;;;;23.24;28.44;98617.50;5054584;28;20220;-62